sensor_id;sensor_type;location;lat;lon;timestamp;P1;durP1;ratioP1;P2;durP2;ratioP2
6999;SDS011;3540;53.242;10.408;2022-12-13T00:01:20;49.83;;;21.17;;
6999;SDS011;3540;53.242;10.408;2022-12-13T00:03:46;48.27;;;20.73;;
6999;SDS011;3540;53.242;10.408;2022-12-13T00:06:12;44.97;;;20.90;;
6999;SDS011;3540;53.242;10.408;2022-12-13T00:08:39;50.33;;;20.53;;
6999;SDS011;3540;53.242;10.408;2022-12-13T00:11:06;50.90;;;19.73;;
6999;SDS011;3540;53.242;10.408;2022-12-13T00:13:34;46.40;;;20.27;;
6999;SDS011;3540;53.242;10.408;2022-12-13T00:16:00;42.23;;;20.03;;
6999;SDS011;3540;53.242;10.408;2022-12-13T00:18:28;47.03;;;20.50;;
6999;SDS011;3540;53.242;10.408;2022-12-13T00:20:55;46.73;;;20.07;;
6999;SDS011;3540;53.242;10.408;2022-12-13T00:23:21;47.23;;;19.53;;
6999;SDS011;3540;53.242;10.408;2022-12-13T00:25:47;46.57;;;20.03;;
6999;SDS011;3540;53.242;10.408;2022-12-13T00:28:13;44.37;;;19.60;;
6999;SDS011;3540;53.242;10.408;2022-12-13T00:30:39;46.37;;;20.60;;
6999;SDS011;3540;53.242;10.408;2022-12-13T00:33:05;44.90;;;20.83;;
6999;SDS011;3540;53.242;10.408;2022-12-13T00:35:31;45.60;;;20.87;;
6999;SDS011;3540;53.242;10.408;2022-12-13T00:37:57;48.33;;;21.63;;
6999;SDS011;3540;53.242;10.408;2022-12-13T00:40:23;43.00;;;18.87;;
6999;SDS011;3540;53.242;10.408;2022-12-13T00:42:49;54.13;;;21.37;;
6999;SDS011;3540;53.242;10.408;2022-12-13T00:45:14;46.17;;;19.73;;
6999;SDS011;3540;53.242;10.408;2022-12-13T00:47:40;45.30;;;19.90;;
6999;SDS011;3540;53.242;10.408;2022-12-13T00:50:06;51.20;;;21.00;;
6999;SDS011;3540;53.242;10.408;2022-12-13T00:52:32;52.77;;;21.67;;
6999;SDS011;3540;53.242;10.408;2022-12-13T00:54:58;50.40;;;22.30;;
6999;SDS011;3540;53.242;10.408;2022-12-13T00:57:24;48.37;;;20.73;;
6999;SDS011;3540;53.242;10.408;2022-12-13T00:59:51;48.20;;;19.97;;
6999;SDS011;3540;53.242;10.408;2022-12-13T01:02:16;48.00;;;20.30;;
6999;SDS011;3540;53.242;10.408;2022-12-13T01:04:42;48.77;;;21.03;;
6999;SDS011;3540;53.242;10.408;2022-12-13T01:07:08;50.47;;;21.37;;
6999;SDS011;3540;53.242;10.408;2022-12-13T01:09:33;48.13;;;19.53;;
6999;SDS011;3540;53.242;10.408;2022-12-13T01:12:00;43.23;;;20.07;;
6999;SDS011;3540;53.242;10.408;2022-12-13T01:14:28;48.87;;;20.37;;
6999;SDS011;3540;53.242;10.408;2022-12-13T01:16:54;43.10;;;20.03;;
6999;SDS011;3540;53.242;10.408;2022-12-13T01:19:23;46.93;;;20.17;;
6999;SDS011;3540;53.242;10.408;2022-12-13T01:21:54;42.37;;;18.37;;
6999;SDS011;3540;53.242;10.408;2022-12-13T01:24:24;42.33;;;19.40;;
6999;SDS011;3540;53.242;10.408;2022-12-13T01:26:51;44.17;;;18.47;;
6999;SDS011;3540;53.242;10.408;2022-12-13T01:29:18;40.00;;;18.17;;
6999;SDS011;3540;53.242;10.408;2022-12-13T01:31:44;43.93;;;18.87;;
6999;SDS011;3540;53.242;10.408;2022-12-13T01:34:14;37.57;;;17.30;;
6999;SDS011;3540;53.242;10.408;2022-12-13T01:36:42;45.53;;;19.00;;
6999;SDS011;3540;53.242;10.408;2022-12-13T01:39:09;49.03;;;20.47;;
6999;SDS011;3540;53.242;10.408;2022-12-13T01:41:40;43.60;;;18.50;;
6999;SDS011;3540;53.242;10.408;2022-12-13T01:44:51;42.37;;;18.20;;
6999;SDS011;3540;53.242;10.408;2022-12-13T01:47:09;44.40;;;18.53;;
6999;SDS011;3540;53.242;10.408;2022-12-13T01:49:36;44.27;;;19.80;;
6999;SDS011;3540;53.242;10.408;2022-12-13T01:52:03;43.70;;;18.77;;
6999;SDS011;3540;53.242;10.408;2022-12-13T01:54:33;46.50;;;19.73;;
6999;SDS011;3540;53.242;10.408;2022-12-13T01:57:04;57.40;;;20.63;;
6999;SDS011;3540;53.242;10.408;2022-12-13T01:59:32;51.83;;;21.50;;
6999;SDS011;3540;53.242;10.408;2022-12-13T02:02:01;47.23;;;20.00;;
6999;SDS011;3540;53.242;10.408;2022-12-13T02:04:29;46.50;;;20.43;;
6999;SDS011;3540;53.242;10.408;2022-12-13T02:07:01;43.07;;;18.60;;
6999;SDS011;3540;53.242;10.408;2022-12-13T02:09:27;43.63;;;18.37;;
6999;SDS011;3540;53.242;10.408;2022-12-13T02:11:53;46.03;;;18.57;;
6999;SDS011;3540;53.242;10.408;2022-12-13T02:14:19;44.93;;;19.63;;
6999;SDS011;3540;53.242;10.408;2022-12-13T02:16:58;44.47;;;18.93;;
6999;SDS011;3540;53.242;10.408;2022-12-13T02:30:50;43.80;;;18.00;;
6999;SDS011;3540;53.242;10.408;2022-12-13T02:46:38;40.93;;;18.13;;
6999;SDS011;3540;53.242;10.408;2022-12-13T02:49:09;41.80;;;18.73;;
6999;SDS011;3540;53.242;10.408;2022-12-13T02:51:36;44.93;;;18.90;;
6999;SDS011;3540;53.242;10.408;2022-12-13T02:54:03;42.03;;;18.10;;
6999;SDS011;3540;53.242;10.408;2022-12-13T02:56:30;42.33;;;18.33;;
6999;SDS011;3540;53.242;10.408;2022-12-13T02:58:56;40.73;;;17.00;;
6999;SDS011;3540;53.242;10.408;2022-12-13T03:07:14;42.53;;;17.47;;
6999;SDS011;3540;53.242;10.408;2022-12-13T03:09:56;42.50;;;17.53;;
6999;SDS011;3540;53.242;10.408;2022-12-13T03:12:48;40.63;;;17.40;;
6999;SDS011;3540;53.242;10.408;2022-12-13T03:15:44;41.37;;;16.77;;
6999;SDS011;3540;53.242;10.408;2022-12-13T03:18:19;36.73;;;16.87;;
6999;SDS011;3540;53.242;10.408;2022-12-13T03:23:16;37.40;;;17.20;;
6999;SDS011;3540;53.242;10.408;2022-12-13T03:25:43;42.70;;;17.50;;
6999;SDS011;3540;53.242;10.408;2022-12-13T03:28:11;38.23;;;17.10;;
6999;SDS011;3540;53.242;10.408;2022-12-13T03:30:37;39.20;;;17.47;;
6999;SDS011;3540;53.242;10.408;2022-12-13T03:33:03;44.40;;;18.10;;
6999;SDS011;3540;53.242;10.408;2022-12-13T03:35:29;39.90;;;18.50;;
6999;SDS011;3540;53.242;10.408;2022-12-13T03:37:55;42.00;;;18.20;;
6999;SDS011;3540;53.242;10.408;2022-12-13T03:40:20;38.27;;;17.30;;
6999;SDS011;3540;53.242;10.408;2022-12-13T03:42:46;82.10;;;29.90;;
6999;SDS011;3540;53.242;10.408;2022-12-13T03:45:12;104.13;;;36.40;;
6999;SDS011;3540;53.242;10.408;2022-12-13T03:47:38;47.33;;;19.73;;
6999;SDS011;3540;53.242;10.408;2022-12-13T03:50:04;43.63;;;18.63;;
6999;SDS011;3540;53.242;10.408;2022-12-13T03:52:30;43.20;;;17.77;;
6999;SDS011;3540;53.242;10.408;2022-12-13T03:54:56;36.07;;;17.17;;
6999;SDS011;3540;53.242;10.408;2022-12-13T03:57:21;43.47;;;17.30;;
6999;SDS011;3540;53.242;10.408;2022-12-13T03:59:47;43.20;;;17.33;;
6999;SDS011;3540;53.242;10.408;2022-12-13T04:02:12;41.93;;;18.33;;
6999;SDS011;3540;53.242;10.408;2022-12-13T04:04:38;39.13;;;17.07;;
6999;SDS011;3540;53.242;10.408;2022-12-13T04:07:04;34.80;;;16.37;;
6999;SDS011;3540;53.242;10.408;2022-12-13T04:09:29;38.93;;;17.30;;
6999;SDS011;3540;53.242;10.408;2022-12-13T04:11:55;41.73;;;17.83;;
6999;SDS011;3540;53.242;10.408;2022-12-13T04:14:47;40.33;;;16.93;;
6999;SDS011;3540;53.242;10.408;2022-12-13T04:17:12;46.70;;;20.33;;
6999;SDS011;3540;53.242;10.408;2022-12-13T04:19:38;50.87;;;21.53;;
6999;SDS011;3540;53.242;10.408;2022-12-13T04:22:04;40.97;;;19.70;;
6999;SDS011;3540;53.242;10.408;2022-12-13T04:24:30;48.23;;;18.50;;
6999;SDS011;3540;53.242;10.408;2022-12-13T04:26:55;45.43;;;18.53;;
6999;SDS011;3540;53.242;10.408;2022-12-13T04:29:21;40.43;;;17.90;;
6999;SDS011;3540;53.242;10.408;2022-12-13T04:31:47;43.50;;;18.70;;
6999;SDS011;3540;53.242;10.408;2022-12-13T04:34:13;42.60;;;18.27;;
6999;SDS011;3540;53.242;10.408;2022-12-13T04:36:38;44.87;;;18.43;;
6999;SDS011;3540;53.242;10.408;2022-12-13T04:39:05;49.50;;;17.43;;
6999;SDS011;3540;53.242;10.408;2022-12-13T04:41:35;40.93;;;17.03;;
6999;SDS011;3540;53.242;10.408;2022-12-13T04:44:02;39.37;;;17.73;;
6999;SDS011;3540;53.242;10.408;2022-12-13T04:46:29;44.13;;;18.27;;
6999;SDS011;3540;53.242;10.408;2022-12-13T04:48:55;40.10;;;18.17;;
6999;SDS011;3540;53.242;10.408;2022-12-13T04:51:21;44.33;;;18.47;;
6999;SDS011;3540;53.242;10.408;2022-12-13T04:53:46;45.57;;;18.87;;
6999;SDS011;3540;53.242;10.408;2022-12-13T04:56:12;42.87;;;19.37;;
6999;SDS011;3540;53.242;10.408;2022-12-13T04:58:38;39.90;;;17.90;;
6999;SDS011;3540;53.242;10.408;2022-12-13T05:01:07;41.10;;;18.77;;
6999;SDS011;3540;53.242;10.408;2022-12-13T05:03:33;47.30;;;18.77;;
6999;SDS011;3540;53.242;10.408;2022-12-13T05:06:03;43.87;;;19.17;;
6999;SDS011;3540;53.242;10.408;2022-12-13T05:08:29;39.50;;;18.57;;
6999;SDS011;3540;53.242;10.408;2022-12-13T05:10:55;45.87;;;19.37;;
6999;SDS011;3540;53.242;10.408;2022-12-13T05:13:21;42.97;;;19.17;;
6999;SDS011;3540;53.242;10.408;2022-12-13T05:15:53;42.10;;;19.30;;
6999;SDS011;3540;53.242;10.408;2022-12-13T05:18:22;44.00;;;19.10;;
6999;SDS011;3540;53.242;10.408;2022-12-13T05:20:48;44.00;;;19.00;;
6999;SDS011;3540;53.242;10.408;2022-12-13T05:23:15;39.23;;;17.80;;
6999;SDS011;3540;53.242;10.408;2022-12-13T05:25:41;44.70;;;19.73;;
6999;SDS011;3540;53.242;10.408;2022-12-13T05:28:07;45.77;;;19.37;;
6999;SDS011;3540;53.242;10.408;2022-12-13T05:30:33;41.17;;;18.87;;
6999;SDS011;3540;53.242;10.408;2022-12-13T05:32:58;40.23;;;17.57;;
6999;SDS011;3540;53.242;10.408;2022-12-13T05:35:26;40.33;;;19.07;;
6999;SDS011;3540;53.242;10.408;2022-12-13T05:37:52;43.63;;;19.33;;
6999;SDS011;3540;53.242;10.408;2022-12-13T05:40:18;42.20;;;18.40;;
6999;SDS011;3540;53.242;10.408;2022-12-13T05:42:44;37.53;;;17.90;;
6999;SDS011;3540;53.242;10.408;2022-12-13T05:45:09;38.90;;;18.20;;
6999;SDS011;3540;53.242;10.408;2022-12-13T05:47:36;41.07;;;19.23;;
6999;SDS011;3540;53.242;10.408;2022-12-13T05:50:02;39.47;;;16.53;;
6999;SDS011;3540;53.242;10.408;2022-12-13T05:52:28;35.60;;;17.53;;
6999;SDS011;3540;53.242;10.408;2022-12-13T05:54:54;41.87;;;18.03;;
6999;SDS011;3540;53.242;10.408;2022-12-13T05:57:20;40.13;;;17.60;;
6999;SDS011;3540;53.242;10.408;2022-12-13T05:59:47;37.20;;;16.77;;
6999;SDS011;3540;53.242;10.408;2022-12-13T06:02:12;38.60;;;18.00;;
6999;SDS011;3540;53.242;10.408;2022-12-13T06:04:38;40.03;;;18.23;;
6999;SDS011;3540;53.242;10.408;2022-12-13T06:07:04;40.60;;;18.10;;
6999;SDS011;3540;53.242;10.408;2022-12-13T06:09:30;41.37;;;18.03;;
6999;SDS011;3540;53.242;10.408;2022-12-13T06:11:55;43.57;;;18.90;;
6999;SDS011;3540;53.242;10.408;2022-12-13T06:14:21;43.33;;;18.17;;
6999;SDS011;3540;53.242;10.408;2022-12-13T06:16:46;43.43;;;18.33;;
6999;SDS011;3540;53.242;10.408;2022-12-13T06:19:12;43.47;;;18.27;;
6999;SDS011;3540;53.242;10.408;2022-12-13T06:21:38;42.47;;;19.07;;
6999;SDS011;3540;53.242;10.408;2022-12-13T06:24:03;41.57;;;18.90;;
6999;SDS011;3540;53.242;10.408;2022-12-13T06:26:30;43.23;;;17.67;;
6999;SDS011;3540;53.242;10.408;2022-12-13T06:28:55;40.80;;;17.93;;
6999;SDS011;3540;53.242;10.408;2022-12-13T06:31:21;43.20;;;18.07;;
6999;SDS011;3540;53.242;10.408;2022-12-13T06:33:47;36.13;;;17.80;;
6999;SDS011;3540;53.242;10.408;2022-12-13T06:36:12;39.27;;;18.43;;
6999;SDS011;3540;53.242;10.408;2022-12-13T06:38:38;38.57;;;17.83;;
6999;SDS011;3540;53.242;10.408;2022-12-13T06:41:07;34.77;;;17.37;;
6999;SDS011;3540;53.242;10.408;2022-12-13T06:43:40;44.80;;;19.37;;
6999;SDS011;3540;53.242;10.408;2022-12-13T06:46:07;41.70;;;19.07;;
6999;SDS011;3540;53.242;10.408;2022-12-13T06:48:33;40.43;;;19.07;;
6999;SDS011;3540;53.242;10.408;2022-12-13T06:50:59;42.90;;;19.47;;
6999;SDS011;3540;53.242;10.408;2022-12-13T06:53:26;43.73;;;19.83;;
6999;SDS011;3540;53.242;10.408;2022-12-13T06:55:51;37.63;;;17.63;;
6999;SDS011;3540;53.242;10.408;2022-12-13T06:58:17;39.83;;;18.60;;
6999;SDS011;3540;53.242;10.408;2022-12-13T07:00:43;36.93;;;17.77;;
6999;SDS011;3540;53.242;10.408;2022-12-13T07:03:10;44.40;;;18.63;;
6999;SDS011;3540;53.242;10.408;2022-12-13T07:05:36;40.20;;;18.40;;
6999;SDS011;3540;53.242;10.408;2022-12-13T07:08:02;36.83;;;18.63;;
6999;SDS011;3540;53.242;10.408;2022-12-13T07:10:28;39.53;;;18.23;;
6999;SDS011;3540;53.242;10.408;2022-12-13T07:12:55;40.60;;;18.63;;
6999;SDS011;3540;53.242;10.408;2022-12-13T07:15:21;43.03;;;18.97;;
6999;SDS011;3540;53.242;10.408;2022-12-13T07:17:48;40.10;;;19.70;;
6999;SDS011;3540;53.242;10.408;2022-12-13T07:20:14;60.37;;;23.73;;
6999;SDS011;3540;53.242;10.408;2022-12-13T07:22:40;44.53;;;18.87;;
6999;SDS011;3540;53.242;10.408;2022-12-13T07:25:06;46.53;;;20.47;;
6999;SDS011;3540;53.242;10.408;2022-12-13T07:27:32;44.83;;;20.53;;
6999;SDS011;3540;53.242;10.408;2022-12-13T07:29:59;37.67;;;18.80;;
6999;SDS011;3540;53.242;10.408;2022-12-13T07:32:25;37.93;;;17.57;;
6999;SDS011;3540;53.242;10.408;2022-12-13T07:34:51;42.20;;;18.23;;
6999;SDS011;3540;53.242;10.408;2022-12-13T07:37:17;46.43;;;20.73;;
6999;SDS011;3540;53.242;10.408;2022-12-13T07:39:43;42.80;;;19.17;;
6999;SDS011;3540;53.242;10.408;2022-12-13T07:42:09;40.23;;;17.80;;
6999;SDS011;3540;53.242;10.408;2022-12-13T07:44:35;39.60;;;19.33;;
6999;SDS011;3540;53.242;10.408;2022-12-13T07:47:00;38.70;;;18.53;;
6999;SDS011;3540;53.242;10.408;2022-12-13T07:49:26;43.57;;;18.57;;
6999;SDS011;3540;53.242;10.408;2022-12-13T07:51:51;37.73;;;18.53;;
6999;SDS011;3540;53.242;10.408;2022-12-13T07:54:17;39.60;;;19.27;;
6999;SDS011;3540;53.242;10.408;2022-12-13T07:56:43;37.37;;;19.00;;
6999;SDS011;3540;53.242;10.408;2022-12-13T07:59:09;40.80;;;19.73;;
6999;SDS011;3540;53.242;10.408;2022-12-13T08:01:34;38.50;;;18.87;;
6999;SDS011;3540;53.242;10.408;2022-12-13T08:04:01;40.80;;;19.60;;
6999;SDS011;3540;53.242;10.408;2022-12-13T08:06:26;37.57;;;17.73;;
6999;SDS011;3540;53.242;10.408;2022-12-13T08:08:56;39.30;;;17.90;;
6999;SDS011;3540;53.242;10.408;2022-12-13T08:11:22;44.40;;;19.50;;
6999;SDS011;3540;53.242;10.408;2022-12-13T08:13:47;43.30;;;18.93;;
6999;SDS011;3540;53.242;10.408;2022-12-13T08:16:13;41.97;;;18.93;;
6999;SDS011;3540;53.242;10.408;2022-12-13T08:18:42;43.40;;;19.63;;
6999;SDS011;3540;53.242;10.408;2022-12-13T08:21:08;37.67;;;18.77;;
6999;SDS011;3540;53.242;10.408;2022-12-13T08:23:35;44.70;;;20.97;;
6999;SDS011;3540;53.242;10.408;2022-12-13T08:26:01;44.13;;;20.17;;
6999;SDS011;3540;53.242;10.408;2022-12-13T08:28:28;41.67;;;20.10;;
6999;SDS011;3540;53.242;10.408;2022-12-13T08:31:00;43.47;;;19.93;;
6999;SDS011;3540;53.242;10.408;2022-12-13T08:33:31;41.83;;;19.63;;
6999;SDS011;3540;53.242;10.408;2022-12-13T08:36:05;39.33;;;18.90;;
6999;SDS011;3540;53.242;10.408;2022-12-13T08:38:35;37.83;;;19.27;;
6999;SDS011;3540;53.242;10.408;2022-12-13T08:41:04;40.80;;;19.27;;
6999;SDS011;3540;53.242;10.408;2022-12-13T08:43:30;43.17;;;21.13;;
6999;SDS011;3540;53.242;10.408;2022-12-13T08:45:55;43.20;;;20.33;;
6999;SDS011;3540;53.242;10.408;2022-12-13T08:48:21;44.93;;;20.40;;
6999;SDS011;3540;53.242;10.408;2022-12-13T08:50:47;40.53;;;20.30;;
6999;SDS011;3540;53.242;10.408;2022-12-13T08:53:12;38.93;;;19.83;;
6999;SDS011;3540;53.242;10.408;2022-12-13T08:55:38;45.73;;;20.57;;
6999;SDS011;3540;53.242;10.408;2022-12-13T08:58:04;40.10;;;19.70;;
6999;SDS011;3540;53.242;10.408;2022-12-13T09:00:32;43.00;;;19.53;;
6999;SDS011;3540;53.242;10.408;2022-12-13T09:02:59;44.23;;;19.47;;
6999;SDS011;3540;53.242;10.408;2022-12-13T09:05:26;42.13;;;20.67;;
6999;SDS011;3540;53.242;10.408;2022-12-13T09:07:56;43.30;;;20.77;;
6999;SDS011;3540;53.242;10.408;2022-12-13T09:10:22;44.33;;;21.00;;
6999;SDS011;3540;53.242;10.408;2022-12-13T09:12:48;46.70;;;20.90;;
6999;SDS011;3540;53.242;10.408;2022-12-13T09:15:14;42.10;;;20.57;;
6999;SDS011;3540;53.242;10.408;2022-12-13T09:17:40;40.47;;;19.43;;
6999;SDS011;3540;53.242;10.408;2022-12-13T09:20:07;41.83;;;20.03;;
6999;SDS011;3540;53.242;10.408;2022-12-13T09:22:35;44.40;;;20.67;;
6999;SDS011;3540;53.242;10.408;2022-12-13T09:25:02;40.47;;;20.40;;
6999;SDS011;3540;53.242;10.408;2022-12-13T09:27:28;42.13;;;20.70;;
6999;SDS011;3540;53.242;10.408;2022-12-13T09:29:55;41.07;;;20.53;;
6999;SDS011;3540;53.242;10.408;2022-12-13T09:32:21;41.30;;;20.77;;
6999;SDS011;3540;53.242;10.408;2022-12-13T09:34:47;47.03;;;21.30;;
6999;SDS011;3540;53.242;10.408;2022-12-13T09:37:12;44.27;;;20.80;;
6999;SDS011;3540;53.242;10.408;2022-12-13T09:39:38;40.10;;;20.50;;
6999;SDS011;3540;53.242;10.408;2022-12-13T09:42:04;45.43;;;21.57;;
6999;SDS011;3540;53.242;10.408;2022-12-13T09:44:35;46.00;;;21.50;;
6999;SDS011;3540;53.242;10.408;2022-12-13T09:47:13;44.23;;;20.77;;
6999;SDS011;3540;53.242;10.408;2022-12-13T09:49:46;48.77;;;21.77;;
6999;SDS011;3540;53.242;10.408;2022-12-13T09:52:13;51.13;;;21.93;;
6999;SDS011;3540;53.242;10.408;2022-12-13T09:54:43;48.07;;;23.07;;
6999;SDS011;3540;53.242;10.408;2022-12-13T09:57:19;46.80;;;21.73;;
6999;SDS011;3540;53.242;10.408;2022-12-13T09:59:49;45.47;;;20.93;;
6999;SDS011;3540;53.242;10.408;2022-12-13T10:02:27;48.27;;;23.57;;
6999;SDS011;3540;53.242;10.408;2022-12-13T10:05:25;38.53;;;22.23;;
6999;SDS011;3540;53.242;10.408;2022-12-13T10:08:00;42.77;;;21.80;;
6999;SDS011;3540;53.242;10.408;2022-12-13T10:10:33;40.90;;;21.40;;
6999;SDS011;3540;53.242;10.408;2022-12-13T10:15:52;41.10;;;20.73;;
6999;SDS011;3540;53.242;10.408;2022-12-13T10:18:30;51.00;;;22.10;;
6999;SDS011;3540;53.242;10.408;2022-12-13T10:21:00;43.73;;;21.77;;
6999;SDS011;3540;53.242;10.408;2022-12-13T10:23:28;41.60;;;20.87;;
6999;SDS011;3540;53.242;10.408;2022-12-13T10:25:54;38.77;;;19.50;;
6999;SDS011;3540;53.242;10.408;2022-12-13T10:28:24;39.47;;;19.77;;
6999;SDS011;3540;53.242;10.408;2022-12-13T10:30:55;38.03;;;19.43;;
6999;SDS011;3540;53.242;10.408;2022-12-13T10:33:23;42.53;;;22.83;;
6999;SDS011;3540;53.242;10.408;2022-12-13T10:36:02;40.03;;;22.90;;
6999;SDS011;3540;53.242;10.408;2022-12-13T10:38:30;41.53;;;22.50;;
6999;SDS011;3540;53.242;10.408;2022-12-13T10:40:59;42.13;;;20.83;;
6999;SDS011;3540;53.242;10.408;2022-12-13T10:43:25;38.80;;;21.43;;
6999;SDS011;3540;53.242;10.408;2022-12-13T10:51:09;38.00;;;20.30;;
6999;SDS011;3540;53.242;10.408;2022-12-13T10:53:45;36.23;;;19.47;;
6999;SDS011;3540;53.242;10.408;2022-12-13T10:56:20;37.10;;;20.70;;
6999;SDS011;3540;53.242;10.408;2022-12-13T10:58:48;39.77;;;20.27;;
6999;SDS011;3540;53.242;10.408;2022-12-13T11:01:33;39.27;;;20.93;;
6999;SDS011;3540;53.242;10.408;2022-12-13T11:04:00;38.33;;;19.40;;
6999;SDS011;3540;53.242;10.408;2022-12-13T11:06:48;39.43;;;20.80;;
6999;SDS011;3540;53.242;10.408;2022-12-13T11:09:27;38.10;;;20.33;;
6999;SDS011;3540;53.242;10.408;2022-12-13T11:12:00;34.03;;;18.97;;
6999;SDS011;3540;53.242;10.408;2022-12-13T11:14:28;35.20;;;19.90;;
6999;SDS011;3540;53.242;10.408;2022-12-13T11:17:07;38.10;;;19.67;;
6999;SDS011;3540;53.242;10.408;2022-12-13T11:19:39;35.93;;;19.23;;
6999;SDS011;3540;53.242;10.408;2022-12-13T11:22:17;37.67;;;20.27;;
6999;SDS011;3540;53.242;10.408;2022-12-13T11:24:50;35.53;;;19.37;;
6999;SDS011;3540;53.242;10.408;2022-12-13T11:27:23;37.10;;;19.80;;
6999;SDS011;3540;53.242;10.408;2022-12-13T11:32:21;35.87;;;19.83;;
6999;SDS011;3540;53.242;10.408;2022-12-13T11:40:28;32.73;;;17.90;;
6999;SDS011;3540;53.242;10.408;2022-12-13T11:43:08;35.70;;;18.70;;
6999;SDS011;3540;53.242;10.408;2022-12-13T11:45:59;33.83;;;18.40;;
6999;SDS011;3540;53.242;10.408;2022-12-13T11:51:07;35.63;;;18.70;;
6999;SDS011;3540;53.242;10.408;2022-12-13T11:56:22;35.93;;;19.60;;
6999;SDS011;3540;53.242;10.408;2022-12-13T12:01:35;33.50;;;19.20;;
6999;SDS011;3540;53.242;10.408;2022-12-13T12:04:47;33.73;;;17.83;;
6999;SDS011;3540;53.242;10.408;2022-12-13T12:07:16;30.27;;;17.17;;
6999;SDS011;3540;53.242;10.408;2022-12-13T12:09:55;31.93;;;18.03;;
6999;SDS011;3540;53.242;10.408;2022-12-13T12:12:34;30.77;;;17.60;;
6999;SDS011;3540;53.242;10.408;2022-12-13T12:15:07;30.60;;;17.93;;
6999;SDS011;3540;53.242;10.408;2022-12-13T12:17:43;28.13;;;17.40;;
6999;SDS011;3540;53.242;10.408;2022-12-13T12:20:11;30.03;;;16.97;;
6999;SDS011;3540;53.242;10.408;2022-12-13T12:22:40;30.53;;;17.30;;
6999;SDS011;3540;53.242;10.408;2022-12-13T12:28:24;30.97;;;17.43;;
6999;SDS011;3540;53.242;10.408;2022-12-13T12:42:14;27.90;;;16.53;;
6999;SDS011;3540;53.242;10.408;2022-12-13T12:47:19;29.07;;;15.57;;
6999;SDS011;3540;53.242;10.408;2022-12-13T12:50:10;27.10;;;16.03;;
6999;SDS011;3540;53.242;10.408;2022-12-13T12:55:34;30.27;;;16.90;;
6999;SDS011;3540;53.242;10.408;2022-12-13T12:58:22;28.50;;;16.27;;
6999;SDS011;3540;53.242;10.408;2022-12-13T13:01:12;30.50;;;16.63;;
6999;SDS011;3540;53.242;10.408;2022-12-13T13:03:47;28.47;;;16.90;;
6999;SDS011;3540;53.242;10.408;2022-12-13T13:06:23;31.77;;;15.80;;
6999;SDS011;3540;53.242;10.408;2022-12-13T13:09:04;27.17;;;16.73;;
6999;SDS011;3540;53.242;10.408;2022-12-13T13:11:38;30.10;;;15.90;;
6999;SDS011;3540;53.242;10.408;2022-12-13T13:19:53;26.67;;;15.13;;
6999;SDS011;3540;53.242;10.408;2022-12-13T13:27:32;29.60;;;17.13;;
6999;SDS011;3540;53.242;10.408;2022-12-13T13:30:04;26.93;;;14.93;;
6999;SDS011;3540;53.242;10.408;2022-12-13T13:32:32;28.93;;;15.50;;
6999;SDS011;3540;53.242;10.408;2022-12-13T13:35:45;38.27;;;20.70;;
6999;SDS011;3540;53.242;10.408;2022-12-13T13:37:54;34.83;;;18.50;;
6999;SDS011;3540;53.242;10.408;2022-12-13T13:40:31;43.97;;;24.70;;
6999;SDS011;3540;53.242;10.408;2022-12-13T13:45:52;31.97;;;17.33;;
6999;SDS011;3540;53.242;10.408;2022-12-13T13:56:43;29.73;;;16.87;;
6999;SDS011;3540;53.242;10.408;2022-12-13T14:02:42;26.37;;;15.60;;
6999;SDS011;3540;53.242;10.408;2022-12-13T14:11:38;28.53;;;16.27;;
6999;SDS011;3540;53.242;10.408;2022-12-13T14:14:21;28.63;;;15.60;;
6999;SDS011;3540;53.242;10.408;2022-12-13T14:20:32;26.07;;;15.63;;
6999;SDS011;3540;53.242;10.408;2022-12-13T14:28:56;26.63;;;14.87;;
6999;SDS011;3540;53.242;10.408;2022-12-13T14:31:25;25.93;;;14.80;;
6999;SDS011;3540;53.242;10.408;2022-12-13T14:34:01;28.50;;;15.87;;
6999;SDS011;3540;53.242;10.408;2022-12-13T14:36:29;27.87;;;15.83;;
6999;SDS011;3540;53.242;10.408;2022-12-13T14:39:00;28.50;;;15.83;;
6999;SDS011;3540;53.242;10.408;2022-12-13T14:41:26;26.53;;;15.70;;
6999;SDS011;3540;53.242;10.408;2022-12-13T14:43:52;28.07;;;15.57;;
6999;SDS011;3540;53.242;10.408;2022-12-13T14:46:17;27.50;;;16.33;;
6999;SDS011;3540;53.242;10.408;2022-12-13T14:48:44;26.83;;;15.17;;
6999;SDS011;3540;53.242;10.408;2022-12-13T14:51:23;28.47;;;16.47;;
6999;SDS011;3540;53.242;10.408;2022-12-13T14:54:02;29.13;;;15.83;;
6999;SDS011;3540;53.242;10.408;2022-12-13T14:56:29;32.53;;;18.13;;
6999;SDS011;3540;53.242;10.408;2022-12-13T15:03:52;34.17;;;18.23;;
6999;SDS011;3540;53.242;10.408;2022-12-13T15:06:19;32.37;;;19.07;;
6999;SDS011;3540;53.242;10.408;2022-12-13T15:08:46;34.23;;;18.87;;
6999;SDS011;3540;53.242;10.408;2022-12-13T15:11:12;36.10;;;18.90;;
6999;SDS011;3540;53.242;10.408;2022-12-13T15:13:39;37.33;;;19.93;;
6999;SDS011;3540;53.242;10.408;2022-12-13T15:16:45;37.67;;;20.40;;
6999;SDS011;3540;53.242;10.408;2022-12-13T15:19:04;40.90;;;20.30;;
6999;SDS011;3540;53.242;10.408;2022-12-13T15:21:38;38.93;;;21.00;;
6999;SDS011;3540;53.242;10.408;2022-12-13T15:24:04;38.03;;;20.87;;
6999;SDS011;3540;53.242;10.408;2022-12-13T15:26:31;40.03;;;21.10;;
6999;SDS011;3540;53.242;10.408;2022-12-13T15:29:05;37.57;;;20.97;;
6999;SDS011;3540;53.242;10.408;2022-12-13T15:31:32;37.13;;;20.37;;
6999;SDS011;3540;53.242;10.408;2022-12-13T15:37:00;39.77;;;20.40;;
6999;SDS011;3540;53.242;10.408;2022-12-13T15:39:33;43.37;;;21.83;;
6999;SDS011;3540;53.242;10.408;2022-12-13T15:42:01;42.77;;;21.60;;
6999;SDS011;3540;53.242;10.408;2022-12-13T15:44:28;46.83;;;23.13;;
6999;SDS011;3540;53.242;10.408;2022-12-13T15:47:04;40.03;;;21.50;;
6999;SDS011;3540;53.242;10.408;2022-12-13T15:52:05;48.10;;;23.73;;
6999;SDS011;3540;53.242;10.408;2022-12-13T15:57:33;54.03;;;24.30;;
6999;SDS011;3540;53.242;10.408;2022-12-13T16:00:03;44.43;;;21.97;;
6999;SDS011;3540;53.242;10.408;2022-12-13T16:05:25;40.87;;;21.50;;
6999;SDS011;3540;53.242;10.408;2022-12-13T16:08:00;37.70;;;20.87;;
6999;SDS011;3540;53.242;10.408;2022-12-13T16:10:27;38.10;;;21.50;;
6999;SDS011;3540;53.242;10.408;2022-12-13T16:12:59;42.30;;;20.97;;
6999;SDS011;3540;53.242;10.408;2022-12-13T16:15:28;42.00;;;22.87;;
6999;SDS011;3540;53.242;10.408;2022-12-13T16:20:48;46.97;;;23.17;;
6999;SDS011;3540;53.242;10.408;2022-12-13T16:23:16;47.13;;;23.13;;
6999;SDS011;3540;53.242;10.408;2022-12-13T16:25:42;43.50;;;22.93;;
6999;SDS011;3540;53.242;10.408;2022-12-13T16:28:12;46.20;;;23.77;;
6999;SDS011;3540;53.242;10.408;2022-12-13T16:33:21;47.03;;;22.60;;
6999;SDS011;3540;53.242;10.408;2022-12-13T16:35:49;49.60;;;23.97;;
6999;SDS011;3540;53.242;10.408;2022-12-13T16:38:15;44.13;;;23.07;;
6999;SDS011;3540;53.242;10.408;2022-12-13T16:40:42;43.63;;;22.43;;
6999;SDS011;3540;53.242;10.408;2022-12-13T16:43:15;45.57;;;22.50;;
6999;SDS011;3540;53.242;10.408;2022-12-13T16:45:47;38.30;;;21.60;;
6999;SDS011;3540;53.242;10.408;2022-12-13T16:48:14;45.50;;;21.90;;
6999;SDS011;3540;53.242;10.408;2022-12-13T16:50:41;48.73;;;22.63;;
6999;SDS011;3540;53.242;10.408;2022-12-13T16:53:08;46.03;;;22.00;;
6999;SDS011;3540;53.242;10.408;2022-12-13T16:55:34;44.40;;;21.93;;
6999;SDS011;3540;53.242;10.408;2022-12-13T16:58:01;44.17;;;22.47;;
6999;SDS011;3540;53.242;10.408;2022-12-13T17:00:28;47.27;;;23.73;;
6999;SDS011;3540;53.242;10.408;2022-12-13T17:02:55;47.63;;;23.30;;
6999;SDS011;3540;53.242;10.408;2022-12-13T17:05:22;47.23;;;23.43;;